Time;durP1;ratioP1;P1;durP2;ratioP2;P2;SDS_P1;SDS_P2;PMS_P1;PMS_P2;Temp;Humidity;BMP_temperature;BMP_pressure;BME280_temperature;BME280_humidity;BME280_pressure;Samples;Min_cycle;Max_cycle;Signal;HPM_P1;HPM_P2
2022/09/29 00:00:52;;;;;;;1.70;1.40;;;;;;;10.08;82.84;94514.47;1783037;80;21007;-74
2022/09/29 00:03:22;;;;;;;2.45;1.50;;;;;;;10.08;83.08;94528.53;1782954;80;21095;-74
2022/09/29 00:05:52;;;;;;;2.55;1.70;;;;;;;10.09;82.93;94528.06;1782949;80;21010;-74
2022/09/29 00:08:23;;;;;;;3.25;1.50;;;;;;;10.02;83.68;94528.72;1782900;80;21007;-74
2022/09/29 00:10:50;;;;;;;2.58;1.35;;;;;;;9.99;83.21;94531.46;1783119;80;20994;-74
2022/09/29 00:13:18;;;;;;;2.67;1.60;;;;;;;10.01;82.81;94531.42;1782791;80;21539;-74
2022/09/29 00:15:57;;;;;;;3.33;1.20;;;;;;;9.96;83.14;94521.03;1782693;80;22275;-74
2022/09/29 00:18:25;;;;;;;1.70;1.40;;;;;;;9.92;83.50;94522.03;1782559;80;20975;-74
2022/09/29 00:21:18;;;;;;;2.55;1.45;;;;;;;9.90;83.46;94520.78;1783042;80;21018;-74
2022/09/29 00:23:46;;;;;;;3.60;1.40;;;;;;;9.89;83.44;94515.09;1783032;80;20951;-74
2022/09/29 00:26:18;;;;;;;3.17;1.60;;;;;;;9.82;83.35;94515.34;1782946;80;21023;-74
2022/09/29 00:28:52;;;;;;;3.17;1.40;;;;;;;9.75;84.24;94517.31;1782888;80;21006;-74
2022/09/29 00:31:20;;;;;;;2.47;1.87;;;;;;;9.71;84.78;94514.39;1782042;80;21015;-75
2022/09/29 00:33:46;;;;;;;2.95;1.47;;;;;;;9.72;84.16;94508.20;1781818;80;21082;-75
2022/09/29 00:36:16;;;;;;;2.70;1.40;;;;;;;9.75;84.23;94501.51;1781584;80;21083;-75
2022/09/29 00:38:45;;;;;;;3.67;1.40;;;;;;;9.76;84.50;94501.93;1781765;80;21006;-74
2022/09/29 00:41:23;;;;;;;3.85;1.27;;;;;;;9.80;84.12;94502.67;1781875;80;21476;-73
2022/09/29 00:43:59;;;;;;;1.90;0.90;;;;;;;9.77;84.16;94503.64;1781626;80;21375;-72
2022/09/29 00:46:37;;;;;;;3.33;1.40;;;;;;;9.78;84.82;94504.06;1782102;80;21106;-73
2022/09/29 00:49:49;;;;;;;2.37;1.60;;;;;;;9.82;85.08;94501.71;1781803;80;21070;-73
2022/09/29 00:52:27;;;;;;;3.83;1.45;;;;;;;9.91;84.98;94496.15;1781790;80;21171;-73
2022/09/29 00:55:08;;;;;;;3.55;1.67;;;;;;;10.00;84.72;94492.33;1760354;80;20990;-73
2022/09/29 00:57:40;;;;;;;5.67;1.15;;;;;;;10.08;84.53;94490.75;1781833;80;21466;-72
2022/09/29 01:00:11;;;;;;;2.47;1.20;;;;;;;10.07;83.72;94487.25;1780591;80;21046;-73
2022/09/29 01:02:44;;;;;;;1.25;1.10;;;;;;;10.00;83.49;94487.52;1781918;80;21086;-73
2022/09/29 01:05:15;;;;;;;3.30;1.17;;;;;;;10.01;83.70;94491.44;1781934;80;21010;-73
2022/09/29 01:07:43;;;;;;;3.95;1.40;;;;;;;10.01;83.52;94491.44;1781815;80;21011;-73
2022/09/29 01:10:13;;;;;;;3.65;1.27;;;;;;;10.00;83.39;94487.52;1781898;80;21010;-73
2022/09/29 01:12:40;;;;;;;3.00;1.47;;;;;;;10.08;84.28;94485.05;1781432;80;20987;-73
2022/09/29 01:15:08;;;;;;;4.20;1.65;;;;;;;10.15;84.16;94490.52;1781800;80;21465;-73
2022/09/29 01:17:35;;;;;;;8.35;1.37;;;;;;;10.26;84.33;94490.59;1781861;80;21513;-73
2022/09/29 01:20:14;;;;;;;1.22;1.10;;;;;;;10.37;84.08;94485.83;1781606;80;21066;-73
2022/09/29 01:23:27;;;;;;;2.17;1.60;;;;;;;10.43;83.39;94476.36;1781903;80;21015;-73
2022/09/29 01:26:15;;;;;;;4.00;1.30;;;;;;;10.40;82.93;94481.28;1781886;80;22324;-73
2022/09/29 01:29:37;;;;;;;6.95;1.20;;;;;;;10.37;83.16;94495.91;1781426;80;21489;-72
2022/09/29 01:32:41;;;;;;;2.62;1.12;;;;;;;10.35;82.91;94492.92;1781938;80;21007;-76
2022/09/29 01:35:17;;;;;;;;;;;;;;;10.35;83.79;94502.15;1784397;80;21121;-74
2022/09/29 01:38:02;;;;;;;2.95;1.30;;;;;;;10.41;83.97;94508.55;1781553;80;20104;-73
2022/09/29 01:41:07;;;;;;;2.02;0.93;;;;;;;10.35;83.70;94506.10;1781779;80;21014;-73
2022/09/29 01:44:10;;;;;;;6.85;1.62;;;;;;;10.36;83.90;94504.74;1781960;80;20994;-74
2022/09/29 01:46:44;;;;;;;4.85;1.17;;;;;;;10.44;83.87;94505.79;1781470;80;21010;-74
2022/09/29 01:49:11;;;;;;;3.05;1.32;;;;;;;10.39;83.90;94510.36;1779162;80;21510;-73
2022/09/29 01:51:54;;;;;;;5.87;1.50;;;;;;;10.46;84.32;94518.90;1760140;80;21011;-73
2022/09/29 01:54:41;;;;;;;5.90;1.62;;;;;;;10.47;83.97;94524.13;1760188;80;21022;-73
2022/09/29 01:57:13;;;;;;;1.90;1.60;;;;;;;10.49;83.96;94527.58;1760381;80;21034;-73
2022/09/29 01:59:53;;;;;;;6.37;1.90;;;;;;;10.48;83.92;94530.27;1781809;80;21034;-73
2022/09/29 02:02:25;;;;;;;2.55;1.77;;;;;;;10.45;83.88;94533.02;1781866;80;21054;-73
2022/09/29 02:04:57;;;;;;;3.08;1.40;;;;;;;10.44;83.95;94534.80;1781443;80;21050;-73
2022/09/29 02:07:32;;;;;;;4.12;1.57;;;;;;;10.37;83.81;94528.02;1781790;80;20983;-73
2022/09/29 02:10:06;;;;;;;4.67;1.90;;;;;;;10.28;84.46;94515.13;1781781;80;21022;-73
2022/09/29 02:12:35;;;;;;;4.33;1.57;;;;;;;10.26;84.92;94513.00;1781189;80;21011;-74
2022/09/29 02:15:06;;;;;;;3.87;1.70;;;;;;;10.21;84.25;94510.52;1781424;80;21493;-73
2022/09/29 02:17:36;;;;;;;3.83;1.37;;;;;;;10.18;84.16;94516.76;1781898;80;21552;-74
2022/09/29 02:20:04;;;;;;;4.62;2.50;;;;;;;10.06;85.02;94517.64;1781796;80;21113;-73
2022/09/29 02:22:31;;;;;;;6.95;5.08;;;;;;;9.97;86.03;94529.33;1781646;80;21496;-73
2022/09/29 02:24:59;;;;;;;7.33;4.15;;;;;;;9.92;86.09;94515.45;1760406;80;21469;-73
2022/09/29 02:27:32;;;;;;;6.12;3.08;;;;;;;9.95;86.33;94505.69;1781470;80;21298;-73
2022/09/29 02:29:58;;;;;;;5.62;2.70;;;;;;;10.02;86.55;94514.69;1780594;80;21085;-74
2022/09/29 02:32:26;;;;;;;3.40;2.08;;;;;;;10.04;86.43;94504.96;1781709;80;21058;-74
2022/09/29 02:34:54;;;;;;;5.83;2.12;;;;;;;10.10;86.68;94510.01;1781942;80;21449;-73
2022/09/29 02:37:46;;;;;;;4.00;2.02;;;;;;;10.11;86.62;94496.80;1781881;80;20963;-74
2022/09/29 02:40:44;;;;;;;3.08;2.00;;;;;;;10.14;86.53;94483.50;1781693;80;21031;-73
2022/09/29 02:43:37;;;;;;;4.22;1.62;;;;;;;10.19;86.63;94491.25;1781717;80;21505;-74
2022/09/29 02:46:38;;;;;;;2.50;1.65;;;;;;;10.30;86.59;94502.77;1781568;80;21054;-76
2022/09/29 02:49:28;;;;;;;2.58;1.40;;;;;;;10.25;86.54;94505.98;1781953;80;21003;-76
2022/09/29 02:52:00;;;;;;;2.33;1.70;;;;;;;10.24;86.81;94498.55;1781900;80;20988;-76
2022/09/29 02:54:36;;;;;;;3.75;1.52;;;;;;;10.33;87.01;94499.58;1780711;80;21018;-76
2022/09/29 02:57:17;;;;;;;2.37;1.70;;;;;;;10.33;86.99;94494.31;1781692;80;21159;-75
2022/09/29 02:59:59;;;;;;;4.15;1.70;;;;;;;10.38;86.68;94486.21;1781849;80;21007;-73
2022/09/29 03:02:27;;;;;;;1.75;1.60;;;;;;;10.45;86.78;94486.40;1781766;80;21031;-74
2022/09/29 03:04:54;;;;;;;4.72;1.82;;;;;;;10.51;86.68;94481.39;1781969;80;21481;-73
2022/09/29 03:07:21;;;;;;;3.35;1.52;;;;;;;10.54;86.63;94475.53;1781597;80;21027;-73
2022/09/29 03:09:48;;;;;;;7.28;2.08;;;;;;;10.57;86.30;94469.28;1781788;80;21007;-73
2022/09/29 03:12:17;;;;;;;4.92;2.52;;;;;;;10.55;85.87;94469.33;1781536;80;21006;-73
2022/09/29 03:14:43;;;;;;;4.78;1.80;;;;;;;10.51;86.19;94473.02;1781916;80;20983;-74
2022/09/29 03:17:10;;;;;;;2.15;1.40;;;;;;;10.54;86.64;94471.58;1781603;80;21019;-74
2022/09/29 03:19:37;;;;;;;2.85;1.55;;;;;;;10.54;86.29;94468.08;1781540;80;20999;-73
2022/09/29 03:22:04;;;;;;;3.30;1.80;;;;;;;10.48;86.22;94462.58;1781698;80;21171;-74
2022/09/29 03:24:31;;;;;;;4.62;1.80;;;;;;;10.50;86.86;94458.09;1781970;80;21042;-73
2022/09/29 03:26:58;;;;;;;2.35;1.98;;;;;;;10.55;86.62;94458.78;1781869;80;21556;-73
2022/09/29 03:29:24;;;;;;;2.98;1.72;;;;;;;10.56;86.28;94459.20;1781693;80;21030;-73
2022/09/29 03:31:51;;;;;;;3.72;1.70;;;;;;;10.54;86.15;94464.98;1781892;80;21011;-73
2022/09/29 03:34:18;;;;;;;3.25;1.65;;;;;;;10.54;85.89;94466.77;1782060;80;20978;-73
2022/09/29 03:36:44;;;;;;;4.10;1.70;;;;;;;10.50;85.92;94459.41;1781940;80;21434;-73
2022/09/29 03:39:11;;;;;;;3.85;1.35;;;;;;;10.55;86.33;94459.24;1781721;80;20999;-74
2022/09/29 03:41:38;;;;;;;3.15;2.37;;;;;;;10.58;85.90;94461.33;1781685;80;21521;-74
2022/09/29 03:44:05;;;;;;;2.85;1.62;;;;;;;10.57;85.89;94455.62;1781948;80;21509;-74
2022/09/29 03:46:31;;;;;;;2.47;1.65;;;;;;;10.54;86.12;94451.80;1781750;80;21038;-73
2022/09/29 03:48:58;;;;;;;5.17;3.45;;;;;;;10.51;86.03;94444.47;1781592;80;21062;-73
2022/09/29 03:51:25;;;;;;;5.25;1.87;;;;;;;10.48;85.77;94441.91;1781551;80;21527;-74
2022/09/29 03:53:51;;;;;;;2.25;1.50;;;;;;;10.45;85.62;94444.20;1781812;80;21003;-74
2022/09/29 03:56:18;;;;;;;2.58;1.20;;;;;;;10.39;85.56;94447.08;1781814;80;21533;-74
2022/09/29 03:58:44;;;;;;;4.62;1.52;;;;;;;10.38;85.91;94444.02;1782126;80;20964;-73
2022/09/29 04:01:10;;;;;;;1.85;1.20;;;;;;;10.37;86.19;94444.95;1781154;80;21022;-73
2022/09/29 04:03:37;;;;;;;3.90;1.27;;;;;;;10.30;86.10;94446.94;1781889;80;20983;-73
2022/09/29 04:06:05;;;;;;;3.35;1.77;;;;;;;10.21;85.93;94446.41;1781850;80;20995;-73
2022/09/29 04:08:31;;;;;;;1.50;1.40;;;;;;;10.17;86.35;94445.16;1781534;80;21179;-74
2022/09/29 04:10:58;;;;;;;3.85;1.98;;;;;;;10.11;85.76;94454.63;1782178;80;21055;-75
2022/09/29 04:13:24;;;;;;;4.25;1.77;;;;;;;10.07;86.19;94452.14;1781945;80;20999;-74
2022/09/29 04:15:58;;;;;;;5.25;2.80;;;;;;;10.09;86.63;94449.00;1781223;80;21015;-73
2022/09/29 04:18:25;;;;;;;1.85;1.55;;;;;;;10.01;86.67;94446.63;1782001;80;21010;-74
2022/09/29 04:20:53;;;;;;;2.95;2.12;;;;;;;9.92;86.09;94450.43;1781597;80;21026;-74
2022/09/29 04:23:20;;;;;;;5.42;1.35;;;;;;;9.86;86.37;94435.31;1781516;80;21054;-74
2022/09/29 04:25:46;;;;;;;3.55;1.07;;;;;;;9.86;86.48;94436.63;1781896;80;21022;-74
2022/09/29 04:28:13;;;;;;;5.03;1.10;;;;;;;9.75;86.03;94436.97;1781648;80;21022;-74
2022/09/29 04:30:40;;;;;;;2.65;1.32;;;;;;;9.71;86.39;94439.32;1781438;80;21077;-75
2022/09/29 04:33:07;;;;;;;6.42;1.85;;;;;;;9.72;86.31;94448.47;1781941;80;21501;-75
2022/09/29 04:35:33;;;;;;;11.05;4.85;;;;;;;9.62;86.49;94451.01;1781512;80;21026;-74
2022/09/29 04:38:00;;;;;;;4.25;1.80;;;;;;;9.62;86.68;94451.47;1781920;80;21047;-75
2022/09/29 04:40:27;;;;;;;2.08;1.40;;;;;;;9.56;86.94;94445.10;1782197;80;21511;-75
2022/09/29 04:42:54;;;;;;;1.95;1.45;;;;;;;9.54;87.28;94447.77;1781482;80;21014;-75
2022/09/29 04:45:21;;;;;;;6.97;6.37;;;;;;;9.54;87.01;94445.14;1781764;80;21011;-70
2022/09/29 04:47:47;;;;;;;2.72;2.45;;;;;;;9.53;86.88;94443.44;1782143;80;20999;-70
2022/09/29 04:50:14;;;;;;;16.95;10.70;;;;;;;9.61;87.51;94440.08;1781357;80;21015;-77
2022/09/29 04:52:43;;;;;;;20.77;14.00;;;;;;;9.63;87.63;94442.22;1781850;80;20991;-80
2022/09/29 04:55:10;;;;;;;20.92;13.22;;;;;;;9.65;87.67;94442.14;1781795;80;21019;-79
2022/09/29 04:57:39;;;;;;;20.97;14.53;;;;;;;9.65;87.00;94439.52;1781617;80;21034;-74
2022/09/29 05:00:07;;;;;;;12.80;9.80;;;;;;;9.64;87.39;94443.92;1780829;80;21038;-71
2022/09/29 05:02:35;;;;;;;17.87;12.80;;;;;;;9.72;88.04;94449.79;1781736;80;20959;-73
2022/09/29 05:05:05;;;;;;;19.42;12.78;;;;;;;9.74;88.56;94444.48;1781235;80;21010;-72
2022/09/29 05:07:34;;;;;;;10.53;7.95;;;;;;;9.83;88.33;94452.55;1781685;80;21003;-67
2022/09/29 05:10:02;;;;;;;14.00;8.18;;;;;;;9.89;88.01;94453.64;1780428;80;21058;-71
2022/09/29 05:12:29;;;;;;;11.57;7.75;;;;;;;9.97;88.08;94462.98;1781219;80;21029;-73
2022/09/29 05:14:55;;;;;;;12.07;7.80;;;;;;;10.01;87.92;94453.22;1781134;80;21042;-74
2022/09/29 05:17:21;;;;;;;11.57;9.35;;;;;;;10.04;87.92;94447.84;1781062;80;21042;-71
2022/09/29 05:19:48;;;;;;;20.27;16.10;;;;;;;10.06;87.43;94451.28;1781507;80;20979;-72
2022/09/29 05:22:14;;;;;;;14.73;10.78;;;;;;;10.11;87.82;94447.18;1781500;80;21062;-73
2022/09/29 05:24:41;;;;;;;22.02;16.23;;;;;;;10.11;87.87;94434.86;1781394;80;21022;-70
2022/09/29 05:27:08;;;;;;;20.88;12.13;;;;;;;10.12;88.12;94433.07;1781892;80;21007;-70
2022/09/29 05:29:34;;;;;;;37.65;24.60;;;;;;;10.16;88.27;94441.28;1781707;80;21046;-70
2022/09/29 05:32:01;;;;;;;31.35;20.77;;;;;;;10.28;88.48;94442.64;1781157;80;21109;-69
2022/09/29 05:34:28;;;;;;;19.67;13.72;;;;;;;10.35;88.20;94430.49;1780931;80;21026;-68
2022/09/29 05:36:55;;;;;;;11.05;8.75;;;;;;;10.39;87.98;94433.44;1781330;80;21014;-71
2022/09/29 05:39:21;;;;;;;12.18;8.90;;;;;;;10.44;88.07;94430.63;1781763;80;21050;-66
2022/09/29 05:41:48;;;;;;;12.37;11.18;;;;;;;10.49;87.84;94430.00;1781935;80;21487;-68
2022/09/29 05:44:15;;;;;;;19.00;13.32;;;;;;;10.52;87.74;94435.63;1781504;80;21027;-75
2022/09/29 05:46:42;;;;;;;16.82;11.75;;;;;;;10.56;87.58;94431.50;1781746;80;21441;-67
2022/09/29 05:49:09;;;;;;;16.10;10.08;;;;;;;10.57;87.31;94437.17;1781863;80;20998;-67
2022/09/29 05:51:36;;;;;;;14.65;8.68;;;;;;;10.58;87.26;94439.34;1781731;80;21053;-64
2022/09/29 05:54:03;;;;;;;11.43;8.13;;;;;;;10.61;87.64;94440.10;1781480;80;21023;-65
2022/09/29 05:56:30;;;;;;;10.75;6.47;;;;;;;10.68;87.77;94443.82;1781673;80;20999;-67
2022/09/29 05:58:56;;;;;;;7.90;7.08;;;;;;;10.76;87.98;94446.59;1781512;80;21066;-63
2022/09/29 06:01:25;;;;;;;8.58;7.20;;;;;;;10.82;87.88;94442.39;1781325;80;21121;-67
2022/09/29 06:03:54;;;;;;;7.95;7.08;;;;;;;10.88;87.76;94437.79;1781699;80;20979;-68
2022/09/29 06:06:25;;;;;;;9.03;6.85;;;;;;;10.96;87.78;94443.20;1781652;80;21002;-73
2022/09/29 06:08:52;;;;;;;9.00;7.15;;;;;;;11.05;87.51;94440.64;1781664;80;21015;-71
2022/09/29 06:11:30;;;;;;;8.45;6.47;;;;;;;11.11;87.40;94432.94;1759723;80;21031;-66
2022/09/29 06:13:57;;;;;;;5.03;4.17;;;;;;;11.17;87.55;94428.28;1781860;80;21035;-66
2022/09/29 06:16:27;;;;;;;5.00;4.15;;;;;;;11.24;86.93;94425.81;1781616;80;21027;-66
2022/09/29 06:18:54;;;;;;;5.85;4.15;;;;;;;11.25;86.59;94427.52;1781984;80;21003;-68
2022/09/29 06:21:25;;;;;;;5.53;4.42;;;;;;;11.29;86.64;94427.38;1781456;80;21057;-67
2022/09/29 06:23:54;;;;;;;9.53;4.42;;;;;;;11.34;87.02;94422.34;1781612;80;21093;-66
2022/09/29 06:26:21;;;;;;;6.33;4.10;;;;;;;11.47;87.26;94420.91;1781836;80;21046;-65
2022/09/29 06:28:48;;;;;;;4.15;3.72;;;;;;;11.57;86.95;94419.23;1781685;80;21055;-70
2022/09/29 06:31:18;;;;;;;5.83;4.72;;;;;;;11.63;86.52;94420.28;1782009;80;21023;-66
2022/09/29 06:33:45;;;;;;;6.35;4.83;;;;;;;11.67;86.49;94420.56;1790087;80;21057;-69
2022/09/29 06:39:07;;;;;;;9.03;7.50;;;;;;;11.77;86.50;94411.33;1790050;80;21528;-72
2022/09/29 06:41:34;;;;;;;10.55;5.95;;;;;;;11.90;86.47;94417.84;1789990;80;21006;-66
2022/09/29 06:44:02;;;;;;;7.00;4.65;;;;;;;12.02;86.58;94417.78;1759457;80;20982;-66
2022/09/29 06:46:28;;;;;;;6.78;4.12;;;;;;;12.18;86.65;94414.00;1789627;80;21019;-69
2022/09/29 06:48:55;;;;;;;5.67;3.25;;;;;;;12.31;86.46;94416.97;1790066;80;21042;-65
2022/09/29 06:51:23;;;;;;;3.27;2.98;;;;;;;12.46;86.33;94427.34;1789995;80;21054;-67
2022/09/29 06:53:51;;;;;;;5.03;3.62;;;;;;;12.60;86.13;94423.62;1789744;80;21055;-64
2022/09/29 06:56:18;;;;;;;4.22;3.33;;;;;;;12.68;85.55;94425.45;1789749;80;21023;-66
2022/09/29 06:58:45;;;;;;;5.35;3.70;;;;;;;12.78;85.20;94433.83;1790140;80;21038;-64
2022/09/29 07:01:13;;;;;;;4.65;2.92;;;;;;;12.87;84.38;94425.91;1789591;80;21564;-66
2022/09/29 07:03:40;;;;;;;4.28;2.90;;;;;;;13.01;84.92;94417.34;1790174;80;20995;-66
2022/09/29 07:06:09;;;;;;;5.37;2.67;;;;;;;13.14;84.90;94423.77;1789801;80;21054;-67
2022/09/29 07:08:37;;;;;;;8.53;5.83;;;;;;;13.26;84.50;94413.08;1789715;80;21022;-65
2022/09/29 07:11:06;;;;;;;6.12;2.42;;;;;;;13.35;84.45;94407.34;1781254;80;20961;-64
2022/09/29 07:13:34;;;;;;;3.83;2.40;;;;;;;13.42;84.00;94410.95;1781596;80;21467;-66
2022/09/29 07:16:10;;;;;;;4.15;2.80;;;;;;;13.50;83.65;94411.05;1772109;80;21130;-65
2022/09/29 07:18:40;;;;;;;2.90;2.60;;;;;;;13.58;83.52;94415.05;1746281;80;21006;-64
2022/09/29 07:21:11;;;;;;;5.42;2.75;;;;;;;13.59;82.81;94416.75;1774044;80;21528;-64
2022/09/29 07:23:38;;;;;;;7.45;4.42;;;;;;;13.67;82.94;94419.50;1771996;80;20941;-64
2022/09/29 07:26:06;;;;;;;9.53;7.83;;;;;;;13.71;82.12;94415.74;1776403;80;21045;-65
2022/09/29 07:28:33;;;;;;;9.85;6.33;;;;;;;13.78;81.88;94413.19;1776491;80;20980;-69
2022/09/29 07:31:04;;;;;;;9.20;6.65;;;;;;;13.84;82.44;94416.39;1776064;80;21048;-68
2022/09/29 07:33:31;;;;;;;5.03;4.25;;;;;;;13.99;82.41;94406.81;1780955;80;20967;-66
2022/09/29 07:35:59;;;;;;;6.92;4.42;;;;;;;14.11;82.08;94418.60;1780600;80;21050;-69
2022/09/29 07:38:27;;;;;;;6.40;4.35;;;;;;;14.21;81.95;94425.59;1773279;80;20961;-66
2022/09/29 07:40:56;;;;;;;5.22;3.10;;;;;;;14.25;81.47;94421.86;1781011;80;20999;-67
2022/09/29 07:43:23;;;;;;;7.25;3.55;;;;;;;14.34;81.00;94424.05;1782479;80;20951;-67
2022/09/29 07:45:50;;;;;;;4.08;3.45;;;;;;;14.44;80.55;94429.73;1784586;80;21061;-67
2022/09/29 07:48:18;;;;;;;4.50;2.40;;;;;;;14.56;80.43;94419.81;1789249;80;21029;-65
2022/09/29 07:50:45;;;;;;;3.50;2.60;;;;;;;14.56;80.43;94419.81;1789079;80;20994;-66
2022/09/29 07:53:12;;;;;;;6.45;2.72;;;;;;;14.68;80.90;94433.77;1789490;80;20991;-66
2022/09/29 07:55:40;;;;;;;6.33;2.50;;;;;;;14.75;79.76;94417.52;1789077;80;21113;-67
2022/09/29 07:58:07;;;;;;;5.33;2.37;;;;;;;14.76;79.75;94419.23;1789931;80;21011;-64
2022/09/29 08:00:34;;;;;;;6.10;2.15;;;;;;;14.81;79.74;94436.63;1789030;80;21007;-67
2022/09/29 08:03:05;;;;;;;7.62;3.17;;;;;;;14.82;79.84;94434.38;1779797;80;21049;-65
2022/09/29 08:05:34;;;;;;;6.87;3.60;;;;;;;14.94;80.59;94432.83;1784823;80;21039;-64
2022/09/29 08:08:02;;;;;;;3.98;3.15;;;;;;;15.10;80.50;94439.52;1776083;80;21122;-66
2022/09/29 08:10:32;;;;;;;5.53;3.65;;;;;;;15.16;79.79;94440.49;1782383;80;20986;-66
2022/09/29 08:12:59;;;;;;;9.60;4.33;;;;;;;15.26;80.22;94447.49;1788303;80;21542;-68
2022/09/29 08:15:26;;;;;;;5.67;2.65;;;;;;;15.39;79.87;94448.52;1789471;80;21536;-66
2022/09/29 08:17:54;;;;;;;8.58;3.10;;;;;;;15.39;79.26;94449.84;1789466;80;21045;-67
2022/09/29 08:20:22;;;;;;;7.03;3.25;;;;;;;15.38;79.35;94460.11;1789720;80;20991;-70
2022/09/29 08:22:49;;;;;;;7.55;3.40;;;;;;;15.38;78.61;94456.12;1788841;80;21129;-69
2022/09/29 08:25:17;;;;;;;8.10;3.15;;;;;;;15.35;78.69;94462.47;1769528;80;20972;-72
2022/09/29 08:27:44;;;;;;;6.78;3.70;;;;;;;15.35;79.23;94467.78;1758746;81;21016;-72
2022/09/29 08:30:12;;;;;;;7.72;3.67;;;;;;;15.37;79.17;94461.03;1758907;81;21004;-73
2022/09/29 08:32:39;;;;;;;4.28;3.55;;;;;;;15.31;78.98;94468.88;1756756;81;21518;-73
2022/09/29 08:35:07;;;;;;;19.05;6.15;;;;;;;15.22;79.77;94480.03;1753528;82;21024;-73
2022/09/29 08:37:34;;;;;;;13.28;8.48;;;;;;;15.15;79.71;94475.52;1753627;82;21044;-67
2022/09/29 08:40:01;;;;;;;13.30;7.35;;;;;;;15.09;80.17;94477.63;1757115;80;21016;-65
2022/09/29 08:42:59;;;;;;;19.07;14.30;;;;;;;15.06;80.60;94475.15;1785677;80;21585;-72
2022/09/29 08:45:34;;;;;;;15.13;10.32;;;;;;;15.02;81.56;94479.78;1775335;80;21522;-68
2022/09/29 08:48:09;;;;;;;7.53;5.83;;;;;;;15.03;81.89;94480.16;1757861;80;21480;-68
2022/09/29 08:50:41;;;;;;;9.60;3.55;;;;;;;15.08;82.15;94477.26;1749280;81;21581;-71
2022/09/29 08:53:12;;;;;;;6.92;4.62;;;;;;;15.13;82.98;94474.73;1743683;82;21322;-71
2022/09/29 08:55:45;;;;;;;17.02;11.50;;;;;;;15.20;82.67;94477.92;1744376;82;21028;-71
2022/09/29 08:58:15;;;;;;;8.15;3.17;;;;;;;15.22;83.06;94480.48;1744432;82;20992;-71
2022/09/29 09:00:50;;;;;;;8.33;4.60;;;;;;;15.28;82.97;94488.14;1744665;82;21049;-71
2022/09/29 09:03:38;;;;;;;4.20;2.60;;;;;;;15.32;83.26;94480.36;1742681;82;21031;-69
2022/09/29 09:06:50;;;;;;;6.78;3.30;;;;;;;15.33;83.35;94486.09;1744560;82;20982;-71
2022/09/29 09:09:44;;;;;;;5.40;2.50;;;;;;;15.28;83.14;94485.00;1720043;82;21040;-66
2022/09/29 09:12:38;;;;;;;8.30;2.20;;;;;;;15.39;84.32;94489.72;1744052;82;21061;-66
2022/09/29 09:15:36;;;;;;;6.20;1.80;;;;;;;15.46;83.62;94490.25;1744793;82;21489;-65
2022/09/29 09:18:33;;;;;;;7.92;1.40;;;;;;;15.46;83.74;94491.10;1744124;82;21005;-66
2022/09/29 09:21:20;;;;;;;3.92;1.77;;;;;;;15.51;83.92;94502.34;1744358;82;21109;-65
2022/09/29 09:24:06;;;;;;;4.00;1.30;;;;;;;15.56;84.48;94504.75;1748377;80;21056;-68
2022/09/29 09:26:41;;;;;;;6.53;3.40;;;;;;;15.61;83.96;94498.70;1742386;81;21036;-65
2022/09/29 09:29:27;;;;;;;3.45;2.50;;;;;;;15.62;84.63;94503.06;1780150;80;21018;-65
2022/09/29 09:32:01;;;;;;;2.62;1.62;;;;;;;15.58;84.31;94500.20;1744158;82;21039;-65
2022/09/29 09:34:54;;;;;;;4.53;1.15;;;;;;;15.56;84.54;94500.77;1754616;82;21028;-65
2022/09/29 09:37:38;;;;;;;4.78;1.77;;;;;;;15.56;84.43;94498.09;1759298;80;20972;-64
2022/09/29 09:40:17;;;;;;;8.03;4.95;;;;;;;15.54;84.36;94498.66;1767716;81;21070;-64
2022/09/29 09:42:50;;;;;;;8.88;3.45;;;;;;;15.57;85.62;94499.80;1768368;81;21018;-64
2022/09/29 09:45:36;;;;;;;7.58;1.82;;;;;;;15.64;85.12;94504.32;1736736;82;21634;-64
2022/09/29 09:48:14;;;;;;;7.30;3.67;;;;;;;15.68;85.18;94501.89;1736627;82;21095;-64
2022/09/29 09:50:42;;;;;;;5.75;2.90;;;;;;;15.82;85.75;94501.98;1736653;82;21045;-64
2022/09/29 09:53:37;;;;;;;3.85;2.08;;;;;;;15.88;85.07;94497.66;1737370;82;21057;-65
2022/09/29 09:56:30;;;;;;;3.25;1.42;;;;;;;15.90;84.68;94504.20;1737156;82;21148;-66
2022/09/29 09:59:23;;;;;;;5.92;1.85;;;;;;;16.01;84.73;94493.83;1709528;82;21053;-65
2022/09/29 10:01:50;;;;;;;;;;;;;;;16.05;84.47;94494.50;1734447;82;21011;-65
2022/09/29 10:04:16;;;;;;;3.47;1.17;;;;;;;16.15;84.50;94493.90;1725738;83;20145;-64
2022/09/29 10:06:46;;;;;;;2.98;1.80;;;;;;;16.22;84.66;94497.89;1725627;83;21535;-66
2022/09/29 10:09:15;;;;;;;6.65;2.55;;;;;;;16.28;84.56;94506.47;1724739;83;21176;-67
2022/09/29 10:11:43;;;;;;;10.68;5.05;;;;;;;16.33;84.48;94503.95;1723590;83;21089;-67
2022/09/29 10:14:24;;;;;;;4.45;2.50;;;;;;;16.48;84.88;94510.63;1725421;83;21089;-67
2022/09/29 10:16:59;;;;;;;3.98;2.27;;;;;;;16.69;85.10;94509.84;1725178;83;21089;-66
2022/09/29 10:19:56;;;;;;;7.35;3.92;;;;;;;16.85;84.63;94505.33;1725244;83;21023;-66
2022/09/29 10:22:24;;;;;;;3.35;1.95;;;;;;;16.99;84.23;94499.17;1725682;83;20997;-66
2022/09/29 10:24:55;;;;;;;4.35;1.92;;;;;;;17.18;83.62;94500.22;1725450;83;21078;-66
2022/09/29 10:27:25;;;;;;;4.60;2.67;;;;;;;17.32;83.08;94488.23;1721756;83;21022;-66
2022/09/29 10:29:53;;;;;;;3.37;2.25;;;;;;;17.40;80.86;94498.41;1724933;82;21066;-66
2022/09/29 10:32:36;;;;;;;3.98;2.80;;;;;;;17.48;81.11;94504.96;1724451;82;21006;-66
2022/09/29 10:35:23;;;;;;;3.90;1.70;;;;;;;17.58;81.23;94511.06;1740315;82;21010;-67
2022/09/29 10:38:10;;;;;;;5.28;2.47;;;;;;;17.50;79.80;94515.06;1741452;82;21069;-67
2022/09/29 10:40:38;;;;;;;6.10;2.25;;;;;;;17.44;80.08;94515.47;1740639;82;21025;-67
2022/09/29 10:43:28;;;;;;;5.15;2.55;;;;;;;17.48;80.11;94510.30;1715106;82;20950;-67
2022/09/29 10:45:57;;;;;;;5.87;2.70;;;;;;;17.41;79.64;94505.45;1741158;82;21076;-67
2022/09/29 10:48:25;;;;;;;8.13;3.90;;;;;;;17.40;80.03;94507.27;1741465;82;21062;-67
2022/09/29 10:50:57;;;;;;;6.60;3.20;;;;;;;17.46;80.33;94511.34;1741533;82;21038;-67
2022/09/29 10:53:40;;;;;;;5.70;1.62;;;;;;;17.57;80.27;94510.70;1741748;82;20954;-67
2022/09/29 10:56:21;;;;;;;5.90;1.80;;;;;;;17.65;79.63;94512.39;1741788;82;21022;-67
2022/09/29 10:58:56;;;;;;;4.60;1.27;;;;;;;17.70;77.77;94515.14;1741637;82;21085;-67
2022/09/29 11:01:26;;;;;;;2.85;1.22;;;;;;;17.75;77.08;94524.19;1714706;82;21032;-67
2022/09/29 11:04:02;;;;;;;9.28;1.65;;;;;;;17.84;75.96;94516.09;1741872;82;20986;-67
2022/09/29 11:06:31;;;;;;;3.17;1.07;;;;;;;17.98;75.07;94508.55;1741902;82;21037;-67
2022/09/29 11:09:03;;;;;;;2.30;1.50;;;;;;;18.19;75.96;94515.13;1741818;82;21582;-67
2022/09/29 11:11:34;;;;;;;5.65;1.27;;;;;;;18.28;74.55;94517.70;1742043;82;21022;-67
2022/09/29 11:14:01;;;;;;;3.15;1.35;;;;;;;18.43;75.09;94519.84;1740797;82;21009;-67
2022/09/29 11:16:33;;;;;;;3.55;1.32;;;;;;;18.55;73.94;94518.53;1741362;82;21587;-67
2022/09/29 11:19:12;;;;;;;2.90;1.42;;;;;;;18.52;73.90;94522.75;1741736;82;21061;-67
2022/09/29 11:22:00;;;;;;;5.60;1.85;;;;;;;18.60;74.58;94525.76;1741981;82;20994;-67
2022/09/29 11:24:35;;;;;;;5.15;2.17;;;;;;;18.50;69.78;94519.32;1741384;82;21623;-67
2022/09/29 11:27:28;;;;;;;2.05;1.37;;;;;;;18.42;70.17;94516.77;1705287;82;20989;-67
2022/09/29 11:30:14;;;;;;;;;;;;;;;18.30;67.53;94514.45;1743972;82;21106;-67
2022/09/29 11:33:10;;;;;;;3.80;1.07;;;;;;;18.27;66.42;94511.95;1741754;82;20120;-67
2022/09/29 11:36:16;;;;;;;3.70;1.10;;;;;;;18.34;68.49;94513.27;1741602;82;21029;-67
2022/09/29 11:38:54;;;;;;;5.47;1.20;;;;;;;18.40;68.12;94502.20;1742015;82;21021;-67
2022/09/29 11:41:36;;;;;;;3.55;1.10;;;;;;;18.47;68.85;94500.84;1741786;82;21070;-67
2022/09/29 11:44:30;;;;;;;3.65;1.10;;;;;;;18.56;70.36;94500.20;1740606;82;21010;-66
2022/09/29 11:47:26;;;;;;;4.08;1.30;;;;;;;18.72;72.24;94490.69;1741032;82;21005;-67
2022/09/29 11:50:10;;;;;;;3.77;1.50;;;;;;;19.06;69.71;94492.39;1741717;82;21022;-67
2022/09/29 11:53:11;;;;;;;2.90;1.42;;;;;;;19.66;68.44;94485.02;1742025;82;21001;-66
2022/09/29 11:56:03;;;;;;;4.45;1.40;;;;;;;20.36;63.88;94482.64;1741725;82;21539;-67
2022/09/29 11:58:40;;;;;;;3.30;1.07;;;;;;;20.65;63.63;94485.37;1741844;82;21524;-66
2022/09/29 12:01:36;;;;;;;3.20;1.32;;;;;;;21.11;60.17;94484.50;1741796;82;21502;-66
2022/09/29 12:04:20;;;;;;;5.45;1.10;;;;;;;21.49;60.26;94482.02;1741728;82;20966;-67
2022/09/29 12:06:56;;;;;;;1.98;1.10;;;;;;;21.61;57.66;94481.05;1741765;82;21492;-67